Cromwell, Indiana
Current Conditions -  °F | °C
As of 12:53 AM on Saturday 29 Nov 2014 (Local Time) from KGSH Reporting Station
Few Clouds Few Clouds  
Wind Chill: 23°   Ceiling: Unl
Heat Index: 32°   Visibility: 10mi
Dew Point: 23°   Wind: 13mph
Humidity: 69%   Direction: 170°S
Pressure: 29.95"   Gusts: NA
Location:  41.4°N, 85.62°W
Report Text: KGSH 290553Z AUTO 17011KT 10SM FEW110 00/M05 A2995 RMK AO2 SLP152 T00001050 10006 21022 58017
Loading
Personal Weather Stations






























Interactive Weather Map New forecast layout! Learn more

10-Day Weather Forecast

Advertisements
Track Severe Weather on mobile